Time;durP1;ratioP1;P1;durP2;ratioP2;P2;SDS_P1;SDS_P2;PMS_P1;PMS_P2;Temp;Humidity;BMP_temperature;BMP_pressure;BME280_temperature;BME280_humidity;BME280_pressure;Samples;Min_cycle;Max_cycle;Signal;HPM_P1;HPM_P2
2022/02/26 00:00:19;;;;;;;3.83;2.10;;;23.10;52.70;;;;;;4992193;28;20201;-57
2022/02/26 00:02:52;;;;;;;2.58;2.28;;;23.20;52.80;;;;;;4992277;28;20205;-55
2022/02/26 00:05:22;;;;;;;4.28;2.40;;;23.20;52.80;;;;;;4992160;28;20248;-56
2022/02/26 00:07:53;;;;;;;3.47;2.28;;;23.20;52.80;;;;;;4992096;28;20205;-54
2022/02/26 00:10:24;;;;;;;3.75;2.50;;;23.30;52.90;;;;;;4991277;28;20739;-48
2022/02/26 00:12:55;;;;;;;3.55;2.42;;;23.30;52.90;;;;;;4992399;28;20252;-56
2022/02/26 00:15:26;;;;;;;2.67;2.20;;;23.30;52.80;;;;;;4992013;28;20198;-55
2022/02/26 00:17:58;;;;;;;3.60;2.22;;;23.40;52.90;;;;;;4992068;28;20225;-58
2022/02/26 00:20:29;;;;;;;3.38;2.30;;;23.40;52.90;;;;;;4991861;28;20221;-53
2022/02/26 00:23:00;;;;;;;4.07;2.20;;;23.40;52.90;;;;;;4992264;28;20217;-54
2022/02/26 00:25:30;;;;;;;3.75;2.45;;;23.40;52.90;;;;;;4972252;28;20198;-54
2022/02/26 00:28:01;;;;;;;3.47;2.17;;;23.40;52.80;;;;;;4972790;28;20205;-58
2022/02/26 00:30:32;;;;;;;2.42;1.95;;;23.50;52.80;;;;;;4972206;28;20226;-55
2022/02/26 00:33:04;;;;;;;3.85;2.33;;;23.50;52.90;;;;;;4972239;28;20198;-52
2022/02/26 00:35:35;;;;;;;3.03;2.38;;;23.50;52.80;;;;;;4972164;28;20202;-57
2022/02/26 00:38:06;;;;;;;2.92;2.25;;;23.50;52.70;;;;;;4972159;28;20277;-54
2022/02/26 00:40:36;;;;;;;3.50;2.10;;;23.50;52.60;;;;;;4971900;28;20292;-53
2022/02/26 00:43:07;;;;;;;3.08;2.20;;;23.60;52.50;;;;;;4972117;28;20677;-56
2022/02/26 00:45:38;;;;;;;3.50;2.30;;;23.60;52.50;;;;;;4971889;28;20198;-55
2022/02/26 00:48:10;;;;;;;4.88;2.55;;;23.60;52.80;;;;;;4971645;28;20205;-53
2022/02/26 00:50:39;;;;;;;3.92;2.00;;;23.70;52.50;;;;;;4978949;28;20256;-47
2022/02/26 00:53:10;;;;;;;3.15;2.30;;;23.70;52.50;;;;;;4991039;28;20193;-56
2022/02/26 00:55:41;;;;;;;2.67;1.80;;;23.70;52.40;;;;;;4990999;28;20244;-57
2022/02/26 00:58:11;;;;;;;2.90;2.00;;;23.70;52.30;;;;;;4991094;28;20225;-56
2022/02/26 01:00:42;;;;;;;5.82;2.08;;;23.70;52.30;;;;;;4990850;28;20349;-59
2022/02/26 01:03:14;;;;;;;2.65;2.10;;;23.80;52.30;;;;;;4990728;28;20197;-57
2022/02/26 01:05:45;;;;;;;3.80;2.15;;;23.80;52.20;;;;;;4991096;28;20775;-55
2022/02/26 01:08:15;;;;;;;3.05;1.95;;;23.80;52.20;;;;;;4991287;28;20619;-56
2022/02/26 01:10:46;;;;;;;2.90;1.90;;;23.80;52.20;;;;;;4991294;28;20225;-50
2022/02/26 01:13:17;;;;;;;3.38;1.90;;;23.80;52.20;;;;;;4991036;28;20193;-54
2022/02/26 01:15:47;;;;;;;3.35;2.13;;;23.80;52.20;;;;;;4990782;28;20279;-57
2022/02/26 01:18:20;;;;;;;4.38;1.90;;;23.80;52.20;;;;;;4990683;28;20221;-55
2022/02/26 01:20:50;;;;;;;2.80;1.77;;;23.80;52.10;;;;;;4990974;28;20280;-57
2022/02/26 01:23:21;;;;;;;3.50;1.90;;;23.90;52.10;;;;;;4991330;28;20264;-54
2022/02/26 01:25:51;;;;;;;2.25;1.40;;;23.90;52.10;;;;;;4990865;28;20653;-58
2022/02/26 01:28:22;;;;;;;3.30;2.10;;;23.90;52.00;;;;;;4990750;28;20256;-59
2022/02/26 01:30:53;;;;;;;3.45;1.98;;;23.90;52.00;;;;;;4990880;28;20213;-55
2022/02/26 01:33:26;;;;;;;3.10;1.73;;;23.90;51.90;;;;;;4990657;28;20248;-56
2022/02/26 01:35:56;;;;;;;1.95;1.73;;;23.90;51.90;;;;;;4990581;28;20197;-53
2022/02/26 01:38:27;;;;;;;3.05;1.77;;;23.90;51.80;;;;;;4990443;28;20626;-55
2022/02/26 01:40:57;;;;;;;2.97;2.05;;;24.00;51.80;;;;;;4990049;28;20228;-56
2022/02/26 01:43:28;;;;;;;4.75;2.03;;;24.00;51.80;;;;;;4990569;28;20228;-55
2022/02/26 01:45:59;;;;;;;3.20;1.70;;;24.00;51.70;;;;;;4990649;28;20201;-57
2022/02/26 01:48:32;;;;;;;2.60;1.80;;;24.00;51.70;;;;;;4990457;28;20231;-58
2022/02/26 01:51:03;;;;;;;2.58;2.15;;;24.00;51.70;;;;;;4990456;28;20268;-55
2022/02/26 01:53:33;;;;;;;3.92;1.73;;;24.00;51.70;;;;;;4990724;28;20209;-59
2022/02/26 01:56:06;;;;;;;2.38;1.75;;;24.00;51.70;;;;;;4971744;28;20198;-57
2022/02/26 01:58:37;;;;;;;2.20;1.73;;;24.00;51.60;;;;;;4981794;28;20217;-56
2022/02/26 02:01:08;;;;;;;3.08;1.83;;;24.00;51.60;;;;;;4993985;28;20283;-55
2022/02/26 02:03:41;;;;;;;2.88;1.92;;;24.00;51.50;;;;;;4994484;28;20662;-53
2022/02/26 02:06:14;;;;;;;3.30;1.75;;;24.00;52.20;;;;;;4994457;28;20205;-52
2022/02/26 02:08:46;;;;;;;2.47;1.70;;;24.00;51.50;;;;;;4994108;28;20198;-59
2022/02/26 02:11:17;;;;;;;3.63;1.75;;;24.00;51.40;;;;;;4994519;28;20213;-58
2022/02/26 02:13:47;;;;;;;2.65;1.80;;;24.00;51.50;;;;;;4993660;28;20201;-56
2022/02/26 02:16:20;;;;;;;2.92;1.60;;;24.00;51.50;;;;;;4994193;28;20201;-56
2022/02/26 02:18:52;;;;;;;3.15;1.75;;;24.00;51.50;;;;;;4994126;28;20814;-55
2022/02/26 02:21:23;;;;;;;2.20;1.40;;;24.00;51.40;;;;;;4994256;28;20308;-60
2022/02/26 02:23:55;;;;;;;3.58;1.85;;;24.00;51.30;;;;;;4993936;28;20214;-54
2022/02/26 02:26:27;;;;;;;3.45;1.60;;;24.00;51.30;;;;;;4993921;28;20270;-48
2022/02/26 02:28:58;;;;;;;4.53;1.30;;;24.00;51.30;;;;;;4994116;28;20205;-51
2022/02/26 02:31:28;;;;;;;3.13;1.20;;;24.00;51.40;;;;;;4993974;28;20226;-54
2022/02/26 02:33:59;;;;;;;1.75;1.08;;;24.00;51.50;;;;;;4997689;28;20828;-54
2022/02/26 02:36:30;;;;;;;2.85;1.27;;;24.00;51.60;;;;;;5010075;28;20286;-52
2022/02/26 02:39:02;;;;;;;2.70;1.40;;;24.00;51.60;;;;;;5011365;28;20228;-53
2022/02/26 02:41:33;;;;;;;2.45;1.20;;;24.00;51.60;;;;;;5010979;28;20271;-55
2022/02/26 02:44:03;;;;;;;4.28;1.60;;;24.00;51.60;;;;;;5011319;28;20200;-57
2022/02/26 02:46:34;;;;;;;1.92;1.30;;;24.00;51.60;;;;;;5010204;28;20197;-55
2022/02/26 02:49:05;;;;;;;1.83;1.23;;;23.90;51.60;;;;;;5011815;28;20193;-55
2022/02/26 02:51:36;;;;;;;2.70;1.27;;;23.90;51.60;;;;;;5009642;28;20224;-54
2022/02/26 02:54:08;;;;;;;2.15;1.40;;;23.90;51.50;;;;;;5010888;28;20255;-55
2022/02/26 02:56:39;;;;;;;2.72;1.10;;;23.90;51.50;;;;;;5009892;28;20209;-56
2022/02/26 02:59:10;;;;;;;2.13;1.13;;;23.90;51.50;;;;;;5011069;28;20774;-57
2022/02/26 03:01:40;;;;;;;2.60;1.35;;;23.90;51.50;;;;;;5010483;28;20216;-57
2022/02/26 03:04:11;;;;;;;2.20;1.20;;;23.90;51.50;;;;;;5011371;28;20267;-57
2022/02/26 03:06:41;;;;;;;1.70;1.08;;;23.80;51.40;;;;;;5010751;28;20212;-57
2022/02/26 03:09:14;;;;;;;2.60;1.20;;;23.80;51.40;;;;;;5011624;28;20193;-56
2022/02/26 03:11:47;;;;;;;3.03;1.02;;;23.80;51.40;;;;;;5010712;28;20279;-54
2022/02/26 03:14:18;;;;;;;4.60;1.40;;;23.80;51.40;;;;;;5007961;28;20208;-56
2022/02/26 03:16:51;;;;;;;1.80;1.05;;;23.80;51.40;;;;;;5010833;28;20205;-56
2022/02/26 03:19:22;;;;;;;2.38;1.35;;;23.80;51.30;;;;;;5010282;28;20233;-56
2022/02/26 03:21:53;;;;;;;2.20;1.10;;;23.80;51.30;;;;;;5011032;28;20225;-56
2022/02/26 03:24:25;;;;;;;2.90;1.15;;;23.80;51.30;;;;;;5010218;28;20213;-56
2022/02/26 03:26:57;;;;;;;4.88;1.55;;;23.80;51.30;;;;;;5022826;23;20774;-56
2022/02/26 03:29:28;;;;;;;2.28;1.08;;;23.70;51.20;;;;;;5010507;28;20192;-56
2022/02/26 03:31:59;;;;;;;1.85;1.02;;;23.70;51.20;;;;;;5010100;28;20224;-52
2022/02/26 03:34:30;;;;;;;2.88;1.20;;;23.70;51.20;;;;;;5009619;28;20700;-56
2022/02/26 03:37:00;;;;;;;1.80;1.15;;;23.70;51.20;;;;;;5010695;28;20239;-57
2022/02/26 03:39:33;;;;;;;2.42;1.30;;;23.70;51.20;;;;;;5010684;28;20311;-53
2022/02/26 03:42:06;;;;;;;2.38;1.02;;;23.60;51.00;;;;;;5010375;28;20229;-55
2022/02/26 03:44:37;;;;;;;1.77;0.93;;;23.70;51.00;;;;;;5010574;28;20197;-56
2022/02/26 03:47:08;;;;;;;3.35;1.10;;;23.60;51.00;;;;;;5010040;28;20197;-57
2022/02/26 03:49:39;;;;;;;3.58;1.30;;;23.60;51.10;;;;;;5010235;28;20212;-57
2022/02/26 03:52:10;;;;;;;3.83;1.35;;;23.50;51.00;;;;;;5008560;28;20286;-56
2022/02/26 03:54:42;;;;;;;1.95;1.10;;;23.50;51.00;;;;;;5007953;28;20708;-55
2022/02/26 03:57:13;;;;;;;4.00;1.63;;;23.50;51.00;;;;;;5009698;28;20193;-56
2022/02/26 03:59:44;;;;;;;4.43;1.30;;;23.50;51.00;;;;;;5010672;28;20221;-54
2022/02/26 04:02:15;;;;;;;3.88;1.45;;;23.50;51.00;;;;;;5009927;28;20220;-57
2022/02/26 04:04:45;;;;;;;2.15;1.00;;;23.50;51.00;;;;;;5010011;28;20240;-56
2022/02/26 04:07:16;;;;;;;3.70;1.35;;;23.40;51.00;;;;;;5010484;28;20201;-58
2022/02/26 04:09:48;;;;;;;3.63;1.35;;;23.40;50.90;;;;;;5010033;28;20193;-57
2022/02/26 04:12:19;;;;;;;4.28;1.67;;;23.40;50.90;;;;;;5009939;28;20216;-56
2022/02/26 04:14:49;;;;;;;2.80;1.55;;;23.40;51.00;;;;;;5009802;28;20220;-56
2022/02/26 04:17:20;;;;;;;2.50;1.27;;;23.40;51.00;;;;;;5010457;28;20193;-57
2022/02/26 04:19:51;;;;;;;3.25;1.10;;;23.30;51.00;;;;;;5008383;28;20227;-57
2022/02/26 04:22:21;;;;;;;3.63;1.33;;;23.30;51.00;;;;;;5009230;28;20213;-56
2022/02/26 04:24:54;;;;;;;3.00;1.20;;;23.30;51.00;;;;;;5009100;28;20192;-56
2022/02/26 04:27:24;;;;;;;3.03;1.23;;;23.30;51.00;;;;;;5010025;28;20263;-57
2022/02/26 04:29:55;;;;;;;4.72;1.58;;;23.30;51.00;;;;;;5009513;28;20204;-56
2022/02/26 04:32:26;;;;;;;3.55;1.25;;;23.20;51.00;;;;;;5009145;28;20291;-58
2022/02/26 04:34:56;;;;;;;2.65;1.33;;;23.20;51.00;;;;;;5001353;28;20224;-54
2022/02/26 04:37:27;;;;;;;3.83;1.30;;;23.20;51.10;;;;;;4991223;28;20202;-56
2022/02/26 04:39:59;;;;;;;2.80;1.30;;;23.20;51.10;;;;;;4989917;28;20296;-56
2022/02/26 04:42:30;;;;;;;3.05;1.40;;;23.20;51.10;;;;;;4989676;28;20264;-55
2022/02/26 04:45:01;;;;;;;2.72;1.45;;;23.10;51.10;;;;;;4989770;28;20244;-55
2022/02/26 04:47:31;;;;;;;4.20;1.38;;;23.10;51.10;;;;;;4989863;28;20278;-56
2022/02/26 04:50:04;;;;;;;2.50;1.50;;;23.10;51.10;;;;;;4989325;28;20606;-55
2022/02/26 04:52:35;;;;;;;2.97;1.50;;;23.00;51.00;;;;;;4989654;28;20190;-57
2022/02/26 04:55:09;;;;;;;2.90;1.33;;;23.00;51.00;;;;;;4990734;28;20755;-58
2022/02/26 04:57:40;;;;;;;4.22;1.42;;;23.00;51.10;;;;;;4990845;28;20256;-54
2022/02/26 05:00:12;;;;;;;2.47;1.08;;;23.00;51.10;;;;;;4991109;28;20229;-49
2022/02/26 05:02:44;;;;;;;4.82;1.60;;;23.00;51.10;;;;;;4990368;28;20687;-56
2022/02/26 05:05:15;;;;;;;2.22;1.35;;;23.00;51.20;;;;;;4990889;28;20189;-57
2022/02/26 05:07:46;;;;;;;5.78;1.60;;;22.90;51.10;;;;;;4990391;28;20298;-56
2022/02/26 05:10:19;;;;;;;6.93;1.70;;;22.90;51.10;;;;;;4990227;28;20201;-53
2022/02/26 05:12:49;;;;;;;3.65;1.58;;;22.90;51.10;;;;;;4990829;28;20288;-57
2022/02/26 05:15:20;;;;;;;3.72;1.60;;;22.90;51.10;;;;;;4991173;28;20863;-56
2022/02/26 05:17:51;;;;;;;5.00;1.95;;;22.90;51.10;;;;;;4990504;28;20604;-56
2022/02/26 05:20:22;;;;;;;5.57;1.65;;;22.90;51.10;;;;;;4990383;28;20279;-56
2022/02/26 05:22:53;;;;;;;3.92;1.63;;;22.80;51.10;;;;;;4990604;28;20206;-55
2022/02/26 05:25:26;;;;;;;5.95;1.98;;;22.80;51.20;;;;;;4990389;28;20442;-56
2022/02/26 05:27:56;;;;;;;4.07;1.70;;;22.80;51.20;;;;;;4990455;28;20213;-56
2022/02/26 05:30:27;;;;;;;5.07;1.88;;;22.80;51.20;;;;;;4990889;28;20217;-56
2022/02/26 05:32:58;;;;;;;4.50;1.98;;;22.70;51.20;;;;;;5003133;23;20231;-58
2022/02/26 05:35:29;;;;;;;4.22;1.80;;;22.70;51.20;;;;;;4989981;28;20194;-58
2022/02/26 05:38:00;;;;;;;4.50;1.88;;;22.70;51.20;;;;;;4990534;28;20854;-58
2022/02/26 05:40:32;;;;;;;5.60;2.20;;;22.70;51.20;;;;;;4990429;28;20233;-58
2022/02/26 05:43:03;;;;;;;4.82;1.92;;;22.60;51.20;;;;;;4990342;28;20643;-55
2022/02/26 05:45:33;;;;;;;3.50;1.80;;;22.70;51.20;;;;;;4987496;28;20689;-58
2022/02/26 05:48:04;;;;;;;5.82;1.90;;;22.60;51.20;;;;;;4971372;28;20654;-58
2022/02/26 05:50:35;;;;;;;4.63;1.90;;;22.60;51.20;;;;;;4974574;28;20681;-58
2022/02/26 05:53:05;;;;;;;3.60;1.65;;;22.60;51.20;;;;;;4990505;28;20205;-56
2022/02/26 05:55:38;;;;;;;4.28;1.70;;;22.50;51.10;;;;;;4990407;28;20538;-56
2022/02/26 05:58:08;;;;;;;5.78;2.10;;;22.50;51.10;;;;;;4990254;28;20197;-56
2022/02/26 06:00:39;;;;;;;4.40;1.83;;;22.50;51.10;;;;;;4989408;28;20693;-56
2022/02/26 06:03:10;;;;;;;4.30;1.83;;;22.50;51.10;;;;;;4971232;28;20198;-53
2022/02/26 06:05:40;;;;;;;5.78;2.35;;;22.50;51.10;;;;;;4974545;28;20194;-56
2022/02/26 06:08:11;;;;;;;3.67;1.75;;;22.50;51.10;;;;;;4990513;28;20868;-54
2022/02/26 06:10:43;;;;;;;3.85;1.73;;;22.50;51.20;;;;;;4990287;28;20221;-56
2022/02/26 06:13:14;;;;;;;5.10;2.10;;;22.40;51.10;;;;;;4989954;28;20197;-56
2022/02/26 06:15:45;;;;;;;4.70;1.67;;;22.40;51.10;;;;;;4990234;28;20258;-55
2022/02/26 06:18:15;;;;;;;5.30;1.75;;;22.40;51.20;;;;;;4990402;28;20268;-56
2022/02/26 06:20:46;;;;;;;3.55;1.50;;;22.40;51.10;;;;;;4989668;28;20279;-56
2022/02/26 06:23:16;;;;;;;7.22;1.85;;;22.40;51.10;;;;;;4990666;28;20264;-56
2022/02/26 06:25:49;;;;;;;4.30;1.90;;;22.30;51.00;;;;;;4990054;28;20202;-55
2022/02/26 06:28:19;;;;;;;5.20;1.70;;;22.30;51.00;;;;;;4990024;28;20193;-58
2022/02/26 06:30:50;;;;;;;5.10;2.17;;;22.30;51.00;;;;;;4988121;28;20225;-58
2022/02/26 06:33:21;;;;;;;5.75;2.35;;;22.30;51.00;;;;;;4971092;28;20743;-59
2022/02/26 06:35:52;;;;;;;2.33;1.63;;;22.30;51.10;;;;;;4974092;28;20228;-55
2022/02/26 06:38:23;;;;;;;5.20;2.10;;;22.20;51.00;;;;;;4990188;28;20284;-58
2022/02/26 06:40:55;;;;;;;4.35;1.70;;;22.20;51.00;;;;;;4979123;28;20225;-58
2022/02/26 06:43:26;;;;;;;4.35;2.10;;;22.20;51.50;;;;;;4973121;28;20194;-56
2022/02/26 06:45:56;;;;;;;4.70;1.90;;;22.20;51.00;;;;;;4973812;28;20245;-57
2022/02/26 06:48:27;;;;;;;4.22;2.30;;;22.20;51.00;;;;;;4974246;28;20624;-58
2022/02/26 06:50:57;;;;;;;4.22;2.15;;;22.20;51.00;;;;;;4974005;28;20221;-57
2022/02/26 06:53:28;;;;;;;4.97;1.95;;;22.10;51.00;;;;;;4974455;28;20202;-57
2022/02/26 06:56:00;;;;;;;4.32;1.95;;;22.10;51.00;;;;;;4974347;28;20198;-54
2022/02/26 06:58:31;;;;;;;6.63;2.33;;;22.10;51.00;;;;;;4973771;28;20249;-56
2022/02/26 07:01:02;;;;;;;4.68;1.77;;;22.10;51.00;;;;;;4973880;28;20237;-53
2022/02/26 07:03:32;;;;;;;4.50;1.70;;;22.10;51.10;;;;;;4973956;28;20206;-57
2022/02/26 07:06:03;;;;;;;3.80;1.80;;;22.10;51.00;;;;;;4977215;28;20241;-56
2022/02/26 07:08:33;;;;;;;4.97;1.90;;;22.00;51.00;;;;;;4993230;28;20206;-56
2022/02/26 07:11:06;;;;;;;4.63;1.83;;;22.00;51.00;;;;;;4993125;28;20264;-56
2022/02/26 07:13:36;;;;;;;3.40;1.90;;;22.00;51.00;;;;;;4992845;28;20201;-55
2022/02/26 07:16:08;;;;;;;4.45;2.20;;;22.00;51.00;;;;;;4993295;28;20276;-52
2022/02/26 07:18:38;;;;;;;4.93;1.92;;;22.00;51.00;;;;;;4992845;28;20189;-53
2022/02/26 07:21:09;;;;;;;4.10;1.83;;;22.00;51.00;;;;;;4992382;28;20646;-55
2022/02/26 07:23:39;;;;;;;4.88;2.10;;;21.90;51.00;;;;;;4992802;28;20201;-53
2022/02/26 07:26:12;;;;;;;4.60;1.95;;;21.90;51.00;;;;;;4992860;28;20198;-56
2022/02/26 07:28:43;;;;;;;5.20;2.35;;;21.90;51.00;;;;;;4992680;28;20201;-54
2022/02/26 07:31:13;;;;;;;4.70;1.83;;;21.90;51.00;;;;;;4978767;28;20217;-49
2022/02/26 07:33:44;;;;;;;5.68;2.10;;;21.80;51.00;;;;;;4991437;28;20209;-51
2022/02/26 07:36:15;;;;;;;4.28;2.03;;;21.80;51.00;;;;;;4987956;28;20794;-51
2022/02/26 07:38:45;;;;;;;5.45;2.10;;;21.80;51.00;;;;;;4987421;28;20245;-49
2022/02/26 07:41:18;;;;;;;3.95;1.73;;;21.80;51.00;;;;;;4989251;28;20291;-49
2022/02/26 07:43:49;;;;;;;5.55;1.95;;;21.80;51.10;;;;;;4989638;28;20197;-46
2022/02/26 07:46:19;;;;;;;5.18;1.80;;;21.80;51.10;;;;;;4991454;28;20205;-53
2022/02/26 07:48:50;;;;;;;5.07;2.10;;;21.70;51.10;;;;;;4990923;28;20248;-53
2022/02/26 07:51:21;;;;;;;4.82;1.90;;;21.70;51.10;;;;;;4990539;28;20280;-47
2022/02/26 07:53:52;;;;;;;4.53;2.00;;;21.70;51.10;;;;;;4989753;28;20202;-49
2022/02/26 07:56:24;;;;;;;3.67;1.90;;;21.70;51.10;;;;;;4990231;28;20189;-53
2022/02/26 07:58:55;;;;;;;3.05;1.85;;;21.70;51.10;;;;;;4988939;28;20197;-56
2022/02/26 08:01:26;;;;;;;5.03;2.30;;;21.70;51.10;;;;;;4989627;28;20295;-51
2022/02/26 08:03:56;;;;;;;4.47;1.95;;;21.70;51.10;;;;;;4991143;28;20229;-55
2022/02/26 08:06:27;;;;;;;5.45;1.88;;;21.60;51.10;;;;;;4990745;28;20197;-56
2022/02/26 08:08:58;;;;;;;4.25;2.13;;;21.60;51.10;;;;;;4990776;28;20669;-55
2022/02/26 08:11:31;;;;;;;4.78;1.92;;;21.60;51.10;;;;;;4990038;28;20209;-45
2022/02/26 08:14:03;;;;;;;4.15;1.83;;;21.60;51.10;;;;;;4990960;28;20194;-46
2022/02/26 08:16:34;;;;;;;4.70;2.22;;;21.60;51.10;;;;;;4989090;28;20206;-52
2022/02/26 08:19:04;;;;;;;3.97;2.05;;;21.60;51.10;;;;;;4989567;28;20557;-49
2022/02/26 08:21:35;;;;;;;4.20;1.95;;;21.60;51.20;;;;;;4989231;28;20247;-47
2022/02/26 08:24:06;;;;;;;4.90;2.05;;;21.60;51.10;;;;;;4990550;28;20288;-52
2022/02/26 08:26:39;;;;;;;4.75;2.10;;;21.50;51.00;;;;;;4990200;28;20202;-56
2022/02/26 08:29:10;;;;;;;4.85;1.95;;;21.50;51.10;;;;;;4987276;28;20700;-51
2022/02/26 08:31:40;;;;;;;4.82;1.95;;;21.50;51.10;;;;;;4988537;28;20213;-50
2022/02/26 08:34:11;;;;;;;3.45;1.70;;;21.50;51.20;;;;;;4989523;28;20190;-55
2022/02/26 08:36:43;;;;;;;5.03;2.05;;;21.50;51.20;;;;;;4989077;28;20205;-49
2022/02/26 09:00:15;;;;;;;5.35;2.03;;;21.30;51.20;;;;;;5930890;23;20687;-52
2022/02/26 09:02:52;;;;;;;4.85;2.13;;;21.30;51.20;;;;;;4985707;28;20477;-53
2022/02/26 09:05:29;;;;;;;3.78;1.85;;;21.30;51.20;;;;;;4985894;28;20605;-50
2022/02/26 09:08:08;;;;;;;5.72;2.00;;;21.30;51.20;;;;;;4986932;28;20640;-53
2022/02/26 09:10:48;;;;;;;4.90;1.95;;;21.30;51.20;;;;;;4985960;28;20627;-53
2022/02/26 09:13:24;;;;;;;5.25;1.85;;;21.30;51.20;;;;;;4986566;28;20205;-50
2022/02/26 09:16:00;;;;;;;4.80;2.00;;;21.30;51.20;;;;;;4985337;28;20740;-55
2022/02/26 09:18:41;;;;;;;3.38;1.92;;;21.20;51.20;;;;;;4986181;28;20468;-53
2022/02/26 09:21:13;;;;;;;5.15;2.10;;;21.20;51.30;;;;;;4984913;28;20592;-56
2022/02/26 09:23:44;;;;;;;3.42;1.90;;;21.20;51.20;;;;;;4988123;28;20252;-56
2022/02/26 09:26:15;;;;;;;4.38;2.33;;;21.20;51.30;;;;;;4988605;28;20200;-56
2022/02/26 09:28:45;;;;;;;3.90;2.03;;;21.20;51.90;;;;;;4988677;28;20205;-56
2022/02/26 09:31:18;;;;;;;3.28;1.65;;;21.20;51.30;;;;;;4988198;28;20213;-56
2022/02/26 09:33:49;;;;;;;3.28;1.63;;;21.10;51.20;;;;;;4989231;28;20248;-56
2022/02/26 09:36:20;;;;;;;4.90;2.05;;;21.10;51.20;;;;;;4983410;28;20193;-57
2022/02/26 09:38:50;;;;;;;4.32;1.80;;;21.10;51.20;;;;;;5006888;23;20566;-57
2022/02/26 09:41:21;;;;;;;2.97;1.60;;;21.10;51.30;;;;;;5005899;28;20229;-57
2022/02/26 09:43:52;;;;;;;4.72;2.17;;;21.10;51.30;;;;;;5008231;28;20655;-58
2022/02/26 09:46:25;;;;;;;3.53;1.85;;;21.10;51.30;;;;;;5008929;28;20196;-56
2022/02/26 09:48:56;;;;;;;3.67;1.77;;;21.00;51.30;;;;;;5004871;28;20263;-55
2022/02/26 09:51:26;;;;;;;4.78;1.90;;;21.10;51.30;;;;;;5007770;28;20626;-59
2022/02/26 09:53:57;;;;;;;5.07;2.00;;;21.00;51.20;;;;;;5008588;28;20189;-57
2022/02/26 09:56:28;;;;;;;3.47;1.85;;;21.00;51.30;;;;;;5007986;28;20193;-55
2022/02/26 09:58:58;;;;;;;3.58;1.98;;;21.00;51.30;;;;;;5008218;28;20574;-57
2022/02/26 10:01:31;;;;;;;3.58;1.90;;;21.00;51.30;;;;;;5008326;28;20240;-58
2022/02/26 10:04:12;;;;;;;2.83;1.40;;;21.00;51.60;;;;;;5007936;28;20656;-57
2022/02/26 10:06:43;;;;;;;4.40;2.22;;;21.00;51.30;;;;;;5008103;28;20255;-56
2022/02/26 10:09:16;;;;;;;5.00;2.08;;;21.00;51.30;;;;;;5008585;28;20197;-58
2022/02/26 10:11:47;;;;;;;5.90;2.35;;;20.90;51.30;;;;;;5007932;28;20208;-53
2022/02/26 10:14:20;;;;;;;4.75;2.10;;;20.90;51.30;;;;;;5007595;28;20196;-56
2022/02/26 10:16:53;;;;;;;4.93;1.70;;;20.90;51.30;;;;;;5008879;28;20193;-57
2022/02/26 10:19:28;;;;;;;5.45;2.20;;;20.90;51.30;;;;;;5011580;28;20205;-55
2022/02/26 10:22:00;;;;;;;3.97;2.10;;;20.90;51.30;;;;;;4974869;28;20252;-55
2022/02/26 10:24:32;;;;;;;3.45;1.92;;;20.90;51.30;;;;;;4985513;28;20197;-53
2022/02/26 10:27:05;;;;;;;3.40;1.48;;;20.90;51.30;;;;;;4990531;28;20197;-57
2022/02/26 10:29:37;;;;;;;4.22;2.08;;;20.90;51.30;;;;;;4993037;28;20198;-56
2022/02/26 10:32:11;;;;;;;3.58;1.75;;;20.80;51.30;;;;;;4992527;28;20233;-56
2022/02/26 10:34:43;;;;;;;4.55;1.90;;;20.80;51.30;;;;;;4993122;28;20236;-57
2022/02/26 10:37:16;;;;;;;4.25;1.92;;;20.80;51.30;;;;;;4993318;28;20260;-57
2022/02/26 10:39:48;;;;;;;4.35;1.80;;;20.80;51.30;;;;;;4992449;28;20665;-57
2022/02/26 10:42:21;;;;;;;3.78;2.40;;;20.80;51.30;;;;;;5018925;23;20224;-56
2022/02/26 10:45:05;;;;;;;4.75;2.30;;;20.80;51.30;;;;;;5007790;28;20189;-58
2022/02/26 10:47:38;;;;;;;4.40;2.05;;;20.80;51.30;;;;;;5012013;28;20262;-58
2022/02/26 10:50:20;;;;;;;3.63;1.50;;;20.80;51.30;;;;;;5011692;28;20201;-55
2022/02/26 10:52:59;;;;;;;3.15;1.40;;;20.70;51.30;;;;;;5012032;28;20204;-55
2022/02/26 10:55:53;;;;;;;2.92;1.63;;;20.70;51.30;;;;;;5011997;28;20613;-54
2022/02/26 10:58:24;;;;;;;4.43;1.92;;;20.70;51.30;;;;;;5011838;28;20204;-55
2022/02/26 11:01:01;;;;;;;4.00;1.98;;;20.70;51.30;;;;;;5009223;28;20708;-57
2022/02/26 11:03:34;;;;;;;4.82;1.92;;;20.70;51.30;;;;;;4991739;28;20410;-55
2022/02/26 11:06:05;;;;;;;4.50;1.88;;;20.70;51.30;;;;;;4996777;28;20266;-55
2022/02/26 11:08:38;;;;;;;4.32;2.05;;;20.70;51.40;;;;;;5009385;28;20205;-54
2022/02/26 11:11:09;;;;;;;3.17;1.50;;;20.70;51.40;;;;;;5011575;28;20228;-59
2022/02/26 11:13:41;;;;;;;3.58;1.70;;;20.60;51.30;;;;;;5011358;28;20205;-56
2022/02/26 11:16:11;;;;;;;3.58;1.73;;;20.60;51.30;;;;;;5011161;28;20196;-58
2022/02/26 11:18:46;;;;;;;4.65;1.80;;;20.60;51.30;;;;;;5011538;28;20656;-55
2022/02/26 11:21:19;;;;;;;3.30;1.80;;;20.60;51.30;;;;;;4999213;28;20267;-55
2022/02/26 11:23:50;;;;;;;3.47;1.50;;;20.60;51.30;;;;;;4991158;28;20211;-54
2022/02/26 11:26:22;;;;;;;3.65;1.70;;;20.60;51.30;;;;;;4991740;28;20198;-47
2022/02/26 11:28:56;;;;;;;3.33;1.60;;;20.60;51.30;;;;;;4991414;28;20228;-56
2022/02/26 11:31:32;;;;;;;3.88;1.67;;;20.60;51.30;;;;;;4991305;28;20236;-56
2022/02/26 11:34:05;;;;;;;4.30;1.70;;;20.60;51.30;;;;;;4988582;28;20252;-56
2022/02/26 11:36:53;;;;;;;3.58;1.70;;;20.60;51.30;;;;;;5002174;28;20197;-55
2022/02/26 11:39:31;;;;;;;3.22;1.75;;;20.60;51.30;;;;;;5001522;28;20186;-56
2022/02/26 11:42:29;;;;;;;4.97;2.30;;;20.50;51.30;;;;;;4867825;23;3431467;-54
2022/02/26 11:45:06;;;;;;;3.67;2.00;;;20.60;51.30;;;;;;4971606;28;20748;-56
2022/02/26 11:47:54;;;;;;;3.35;1.75;;;20.50;51.30;;;;;;4973546;28;20244;-54
2022/02/26 11:50:29;;;;;;;3.80;1.70;;;20.50;51.30;;;;;;4972590;28;20273;-53
2022/02/26 11:53:05;;;;;;;2.78;1.55;;;20.50;51.30;;;;;;4953750;28;20210;-55
2022/02/26 11:55:43;;;;;;;5.60;2.25;;;20.50;51.30;;;;;;4953020;28;20202;-56
2022/02/26 11:58:17;;;;;;;3.45;1.70;;;20.50;51.40;;;;;;4953379;28;20205;-57
2022/02/26 12:00:50;;;;;;;3.92;1.70;;;20.50;51.30;;;;;;4956741;28;20291;-55
2022/02/26 12:03:32;;;;;;;3.30;1.70;;;20.50;51.40;;;;;;4992369;28;20279;-57
2022/02/26 12:06:32;;;;;;;3.85;1.50;;;20.40;51.40;;;;;;4969523;28;20206;-56
2022/02/26 12:09:10;;;;;;;2.58;1.55;;;20.40;51.40;;;;;;4966430;28;20204;-56
2022/02/26 12:11:44;;;;;;;2.70;1.40;;;20.40;51.30;;;;;;4952329;28;20285;-56
2022/02/26 12:14:26;;;;;;;3.88;1.90;;;20.40;51.30;;;;;;4952395;28;20198;-56
2022/02/26 12:17:08;;;;;;;2.03;1.10;;;20.40;51.40;;;;;;4953523;28;20581;-56
2022/02/26 12:19:51;;;;;;;3.17;1.48;;;20.40;51.40;;;;;;4953460;28;20242;-55
2022/02/26 12:22:33;;;;;;;2.22;1.70;;;20.40;51.40;;;;;;4968947;28;20734;-56
2022/02/26 12:25:14;;;;;;;3.53;1.50;;;20.40;51.40;;;;;;4970448;28;20206;-54
2022/02/26 12:27:45;;;;;;;3.15;1.48;;;20.40;51.30;;;;;;4972579;28;20289;-58
2022/02/26 12:30:17;;;;;;;5.68;1.60;;;20.30;51.30;;;;;;4972439;28;20198;-55
2022/02/26 12:33:01;;;;;;;3.47;1.70;;;20.30;51.30;;;;;;4972508;28;20256;-56
2022/02/26 12:35:35;;;;;;;3.03;1.48;;;20.40;51.40;;;;;;4971771;28;20198;-55
2022/02/26 12:38:23;;;;;;;3.65;1.70;;;20.30;51.30;;;;;;4965525;28;20191;-55
2022/02/26 12:40:58;;;;;;;3.75;1.48;;;20.30;51.40;;;;;;4966379;28;20217;-56
2022/02/26 12:43:31;;;;;;;3.22;1.50;;;20.30;51.40;;;;;;4971283;28;20230;-56
2022/02/26 12:46:03;;;;;;;3.25;1.50;;;20.30;51.40;;;;;;4965961;28;20198;-54
2022/02/26 12:48:34;;;;;;;4.22;1.77;;;20.30;51.40;;;;;;4952845;28;20258;-55
2022/02/26 12:51:07;;;;;;;3.72;1.40;;;20.30;51.40;;;;;;4955210;28;20268;-56
2022/02/26 12:53:40;;;;;;;3.33;1.58;;;20.30;51.40;;;;;;4963958;28;20713;-53
2022/02/26 12:56:10;;;;;;;3.58;1.73;;;20.30;51.40;;;;;;4963202;28;20206;-56
2022/02/26 12:58:41;;;;;;;2.63;1.60;;;20.20;51.30;;;;;;4969225;28;20205;-54
2022/02/26 13:01:24;;;;;;;3.40;1.55;;;20.20;51.40;;;;;;4971976;28;20223;-53
2022/02/26 13:03:56;;;;;;;2.45;1.30;;;20.30;51.40;;;;;;4971913;28;20260;-57
2022/02/26 13:06:27;;;;;;;2.05;1.38;;;20.30;51.40;;;;;;4971380;28;20265;-56
2022/02/26 13:08:59;;;;;;;3.55;1.45;;;20.20;51.40;;;;;;4970693;28;20670;-57
2022/02/26 13:11:30;;;;;;;3.20;1.58;;;20.20;51.40;;;;;;4971688;28;20269;-56
2022/02/26 13:14:10;;;;;;;3.38;1.60;;;20.20;51.40;;;;;;4971483;28;20264;-56
2022/02/26 13:16:42;;;;;;;2.25;1.42;;;20.20;51.40;;;;;;4970969;28;20916;-54
2022/02/26 13:19:13;;;;;;;3.35;1.63;;;20.20;51.30;;;;;;4971939;28;20194;-56
2022/02/26 13:21:44;;;;;;;3.38;1.40;;;20.20;51.40;;;;;;4971209;28;20222;-54
2022/02/26 13:27:38;;;;;;;3.10;1.50;;;20.10;51.40;;;;;;4967933;28;20197;-57
2022/02/26 13:30:10;;;;;;;3.65;1.63;;;20.10;51.20;;;;;;4971198;28;20237;-57
2022/02/26 13:32:44;;;;;;;2.55;1.23;;;20.20;51.40;;;;;;4971501;28;20237;-55
2022/02/26 13:35:15;;;;;;;3.60;1.73;;;20.10;51.40;;;;;;4971296;28;20225;-57
2022/02/26 13:37:46;;;;;;;2.53;1.40;;;20.10;51.40;;;;;;4969478;28;20284;-56